createdAt,value
2023-03-05T00:01:19.046Z,1.05
2023-03-05T00:03:47.541Z,1.09
2023-03-05T00:06:17.574Z,1.06
2023-03-05T00:08:45.714Z,1.12
2023-03-05T00:11:14.353Z,1.09
2023-03-05T00:13:42.368Z,1.05
2023-03-05T00:16:12.401Z,1.01
2023-03-05T00:18:40.690Z,0.92
2023-03-05T00:21:19.623Z,0.84
2023-03-05T00:23:47.416Z,0.93
2023-03-05T00:26:15.160Z,0.94
2023-03-05T00:28:43.076Z,0.90
2023-03-05T00:31:10.838Z,0.91
2023-03-05T00:33:38.849Z,0.89
2023-03-05T00:36:07.681Z,0.94
2023-03-05T00:38:36.886Z,0.95
2023-03-05T00:41:05.271Z,0.91
2023-03-05T00:43:32.980Z,0.96
2023-03-05T00:46:01.300Z,0.93
2023-03-05T00:48:29.020Z,1.01
2023-03-05T00:50:56.722Z,0.98
2023-03-05T00:53:24.763Z,1.08
2023-03-05T00:55:53.798Z,1.07
2023-03-05T00:58:21.701Z,1.01
2023-03-05T01:00:50.489Z,1.02
2023-03-05T01:03:18.380Z,0.98
2023-03-05T01:05:46.303Z,0.95
2023-03-05T01:08:14.016Z,1.01
2023-03-05T01:10:41.764Z,1.04
2023-03-05T01:13:11.022Z,0.96
2023-03-05T01:15:38.778Z,0.96
2023-03-05T01:18:06.769Z,0.90
2023-03-05T01:20:35.098Z,0.93
2023-03-05T01:23:02.837Z,0.97
2023-03-05T01:25:30.756Z,1.02
2023-03-05T01:27:58.724Z,1.09
2023-03-05T01:30:28.129Z,1.08
2023-03-05T01:32:56.476Z,1.06
2023-03-05T01:35:26.375Z,1.09
2023-03-05T01:37:54.384Z,1.06
2023-03-05T01:40:26.033Z,1.07
2023-03-05T01:42:59.445Z,1.02
2023-03-05T01:45:32.463Z,1.04
2023-03-05T01:48:01.154Z,1.10
2023-03-05T01:50:30.069Z,1.12
2023-03-05T01:53:02.138Z,1.15
2023-03-05T01:55:32.788Z,1.16
2023-03-05T01:58:03.964Z,1.05
2023-03-05T02:00:36.077Z,1.06
2023-03-05T02:03:08.242Z,1.01
2023-03-05T02:05:38.321Z,1.02
2023-03-05T02:08:08.600Z,1.00
2023-03-05T02:10:38.702Z,0.94
2023-03-05T02:13:09.597Z,0.97
2023-03-05T02:15:39.535Z,0.99
2023-03-05T02:18:08.609Z,1.07
2023-03-05T02:20:45.406Z,1.05
2023-03-05T02:23:15.287Z,1.01
2023-03-05T02:25:44.218Z,1.02
2023-03-05T02:28:17.279Z,1.10
2023-03-05T02:30:45.523Z,1.14
2023-03-05T02:33:15.220Z,1.16
2023-03-05T02:35:44.394Z,1.10
2023-03-05T02:38:14.862Z,1.06
2023-03-05T02:40:43.266Z,1.04
2023-03-05T02:43:11.600Z,1.05
2023-03-05T02:45:40.837Z,1.10
2023-03-05T02:48:08.960Z,1.18
2023-03-05T02:50:39.643Z,1.20
2023-03-05T02:53:07.663Z,1.19
2023-03-05T02:55:36.809Z,1.26
2023-03-05T02:58:04.693Z,1.27
2023-03-05T03:00:32.425Z,1.32
2023-03-05T03:03:00.425Z,1.26
2023-03-05T03:05:28.313Z,1.24
2023-03-05T03:07:56.024Z,1.26
2023-03-05T03:10:23.927Z,1.30
2023-03-05T03:12:53.045Z,1.28
2023-03-05T03:15:20.929Z,1.18
2023-03-05T03:17:48.597Z,1.16
2023-03-05T03:20:18.297Z,1.16
2023-03-05T03:22:46.873Z,1.15
2023-03-05T03:25:16.650Z,1.15
2023-03-05T03:27:44.368Z,1.12
2023-03-05T03:30:14.920Z,1.07
2023-03-05T03:32:42.768Z,1.06
2023-03-05T03:35:11.435Z,1.14
2023-03-05T03:37:39.995Z,1.10
2023-03-05T03:40:08.961Z,1.15
2023-03-05T03:42:36.674Z,1.16
2023-03-05T03:45:05.341Z,1.13
2023-03-05T03:47:34.550Z,1.11
2023-03-05T03:50:02.442Z,1.09
2023-03-05T03:52:30.139Z,1.18
2023-03-05T03:55:01.505Z,1.23
2023-03-05T03:57:30.400Z,1.24
2023-03-05T03:59:58.188Z,1.28
2023-03-05T04:02:26.437Z,1.27
2023-03-05T04:04:55.598Z,1.30
2023-03-05T04:07:23.351Z,1.24
2023-03-05T04:09:51.061Z,1.25
2023-03-05T04:12:18.992Z,1.26
2023-03-05T04:14:46.852Z,1.31
2023-03-05T04:17:15.473Z,1.38
2023-03-05T04:19:43.600Z,1.40
2023-03-05T04:22:14.547Z,1.37
2023-03-05T04:24:42.407Z,1.38
2023-03-05T04:27:10.729Z,1.41
2023-03-05T04:29:38.512Z,1.42
2023-03-05T04:32:06.683Z,1.43
2023-03-05T04:34:35.221Z,1.34
2023-03-05T04:37:02.937Z,1.37
2023-03-05T04:39:32.119Z,1.38
2023-03-05T04:41:59.825Z,1.47
2023-03-05T04:44:27.551Z,1.46
2023-03-05T04:46:55.243Z,1.49
2023-03-05T04:49:22.944Z,1.47
2023-03-05T04:51:50.662Z,1.48
2023-03-05T04:54:18.357Z,1.48
2023-03-05T04:56:47.384Z,1.43
2023-03-05T04:59:15.056Z,1.49
2023-03-05T05:01:43.047Z,1.52
2023-03-05T05:04:10.858Z,1.53
2023-03-05T05:06:38.566Z,1.56
2023-03-05T05:09:06.299Z,1.55
2023-03-05T05:11:34.083Z,1.57
2023-03-05T05:14:03.478Z,1.56
2023-03-05T05:16:31.447Z,1.56
2023-03-05T05:18:59.302Z,1.49
2023-03-05T05:21:27.021Z,1.42
2023-03-05T05:23:54.712Z,1.46
2023-03-05T05:26:22.493Z,1.49
2023-03-05T05:28:50.195Z,1.46
2023-03-05T05:31:19.760Z,1.47
2023-03-05T05:33:49.771Z,1.45
2023-03-05T05:36:20.041Z,1.40
2023-03-05T05:38:47.743Z,1.37
2023-03-05T05:41:17.713Z,1.40
2023-03-05T05:43:45.684Z,1.39
2023-03-05T05:46:15.367Z,1.39
2023-03-05T05:48:45.066Z,1.41
2023-03-05T05:51:15.770Z,1.41
2023-03-05T05:53:44.292Z,1.45
2023-03-05T05:56:13.057Z,1.48
2023-03-05T05:58:42.146Z,1.48
2023-03-05T06:01:14.887Z,1.52
2023-03-05T06:03:44.077Z,1.49
2023-03-05T06:06:12.566Z,1.51
2023-03-05T06:08:40.283Z,1.54
2023-03-05T06:11:08.686Z,1.53
2023-03-05T06:13:36.818Z,1.52
2023-03-05T06:16:07.490Z,1.39
2023-03-05T06:18:35.437Z,1.46
2023-03-05T06:21:06.661Z,1.47
2023-03-05T06:23:34.989Z,1.46
2023-03-05T06:26:04.531Z,1.40
2023-03-05T06:28:32.929Z,1.41
2023-03-05T06:31:01.865Z,1.48
2023-03-05T06:33:29.752Z,1.46
2023-03-05T06:35:57.976Z,1.49
2023-03-05T06:38:27.182Z,1.48
2023-03-05T06:40:55.289Z,1.49
2023-03-05T06:43:22.987Z,1.54
2023-03-05T06:45:50.722Z,1.52
2023-03-05T06:48:18.430Z,1.55
2023-03-05T06:50:46.122Z,1.51
2023-03-05T06:53:13.810Z,1.57
2023-03-05T06:55:42.824Z,1.63
2023-03-05T06:58:10.511Z,1.55
2023-03-05T07:00:38.200Z,1.65
2023-03-05T07:03:05.881Z,1.67
2023-03-05T07:05:34.311Z,1.70
2023-03-05T07:08:04.083Z,1.78
2023-03-05T07:10:31.788Z,1.76
2023-03-05T07:13:00.808Z,1.81
2023-03-05T07:15:28.510Z,1.82
2023-03-05T07:17:56.548Z,1.89
2023-03-05T07:20:24.257Z,1.91
2023-03-05T07:22:51.953Z,1.94
2023-03-05T07:25:21.511Z,1.95
2023-03-05T07:27:49.699Z,1.91
2023-03-05T07:30:19.553Z,1.98
2023-03-05T07:32:47.289Z,1.98
2023-03-05T07:35:15.174Z,2.03
2023-03-05T07:37:42.896Z,1.97
2023-03-05T07:40:11.899Z,2.02
2023-03-05T07:42:39.654Z,2.00
2023-03-05T07:45:24.251Z,1.99
2023-03-05T07:47:52.659Z,2.06
2023-03-05T07:50:20.677Z,2.09
2023-03-05T07:52:48.389Z,2.17
2023-03-05T07:55:16.310Z,2.08
2023-03-05T07:57:44.050Z,2.10
2023-03-05T08:00:12.998Z,2.18
2023-03-05T08:02:42.055Z,2.29
2023-03-05T08:05:10.187Z,2.28
2023-03-05T08:07:37.909Z,2.34
2023-03-05T08:10:06.643Z,2.23
2023-03-05T08:12:34.408Z,2.33
2023-03-05T08:15:02.120Z,2.34
2023-03-05T08:17:29.795Z,2.43
2023-03-05T08:20:00.199Z,2.45
2023-03-05T08:22:28.090Z,2.42
2023-03-05T08:24:55.757Z,2.46
2023-03-05T08:27:23.440Z,2.59
2023-03-05T08:29:51.115Z,2.67
2023-03-05T08:32:18.960Z,2.63
2023-03-05T08:34:46.677Z,2.54
2023-03-05T08:37:15.834Z,2.64
2023-03-05T08:39:43.526Z,2.64
2023-03-05T08:42:11.191Z,2.62
2023-03-05T08:44:39.013Z,2.62
2023-03-05T08:47:07.350Z,2.70
2023-03-05T08:49:35.031Z,2.71
2023-03-05T08:52:02.732Z,2.67
2023-03-05T08:54:31.939Z,2.82
2023-03-05T08:56:59.640Z,2.91
2023-03-05T08:59:27.481Z,2.87
2023-03-05T09:01:55.293Z,2.99
2023-03-05T09:04:23.022Z,2.88
2023-03-05T09:06:50.713Z,2.96
2023-03-05T09:09:20.668Z,2.88
2023-03-05T09:11:51.876Z,2.83
2023-03-05T09:14:19.711Z,2.86
2023-03-05T09:16:47.487Z,2.89
2023-03-05T09:19:15.290Z,2.93
2023-03-05T09:21:43.478Z,3.03
2023-03-05T09:24:11.812Z,3.03
2023-03-05T09:26:40.953Z,2.87
2023-03-05T09:29:10.114Z,3.01
2023-03-05T09:31:38.158Z,3.07
2023-03-05T09:34:07.279Z,3.06
2023-03-05T09:36:35.968Z,3.17
2023-03-05T09:39:04.660Z,3.03
2023-03-05T09:41:53.545Z,3.17
2023-03-05T09:44:35.794Z,3.24
2023-03-05T09:47:19.445Z,3.15
2023-03-05T09:49:54.300Z,3.33
2023-03-05T09:52:24.499Z,3.17
2023-03-05T09:54:56.024Z,3.14
2023-03-05T09:57:26.855Z,3.24
2023-03-05T10:00:00.345Z,3.29
2023-03-05T10:02:33.141Z,3.33
2023-03-05T10:05:10.530Z,3.52
2023-03-05T10:07:42.634Z,3.48
2023-03-05T10:10:16.026Z,3.50
2023-03-05T10:12:45.806Z,3.54
2023-03-05T10:15:17.063Z,3.70
2023-03-05T10:17:58.439Z,3.79
2023-03-05T10:20:52.197Z,3.81
2023-03-05T10:23:29.993Z,3.93
2023-03-05T10:26:07.692Z,3.85
2023-03-05T10:28:39.254Z,4.09
2023-03-05T10:31:26.859Z,4.12
2023-03-05T10:34:07.100Z,4.18
2023-03-05T10:36:46.813Z,3.94
2023-03-05T10:39:56.205Z,4.12
2023-03-05T10:42:35.118Z,4.23
2023-03-05T10:45:15.140Z,4.19
2023-03-05T10:47:50.293Z,4.23
2023-03-05T10:50:21.318Z,4.26
2023-03-05T10:52:54.005Z,4.34
2023-03-05T10:55:23.563Z,4.33
2023-03-05T10:57:51.294Z,4.34
2023-03-05T11:00:22.409Z,4.38
2023-03-05T11:03:05.703Z,4.14
2023-03-05T11:05:43.092Z,4.25
2023-03-05T11:08:30.342Z,4.49
2023-03-05T11:11:14.366Z,4.65
2023-03-05T11:13:54.432Z,4.64
2023-03-05T11:16:24.500Z,4.72
2023-03-05T11:19:16.490Z,4.73
2023-03-05T11:21:45.414Z,4.61
2023-03-05T11:24:15.329Z,4.66
2023-03-05T11:26:52.496Z,4.70
2023-03-05T11:29:24.053Z,4.49
2023-03-05T11:31:53.122Z,4.69
2023-03-05T11:34:31.333Z,4.93
2023-03-05T11:37:06.214Z,4.99
2023-03-05T11:39:38.234Z,4.78
2023-03-05T11:42:08.189Z,4.75
2023-03-05T11:44:44.979Z,5.00
2023-03-05T11:47:24.042Z,4.82
2023-03-05T11:49:56.805Z,4.78
2023-03-05T11:52:30.982Z,4.92
2023-03-05T11:55:06.345Z,4.82
2023-03-05T11:57:41.614Z,4.99
2023-03-05T12:00:16.174Z,4.95
2023-03-05T12:02:44.470Z,4.99
2023-03-05T12:05:17.119Z,5.02
2023-03-05T12:07:51.445Z,4.99
2023-03-05T12:10:21.918Z,5.06
2023-03-05T12:12:56.053Z,5.28
2023-03-05T12:15:34.885Z,5.21
2023-03-05T12:18:13.683Z,5.32
2023-03-05T12:20:50.387Z,5.52
2023-03-05T12:23:20.752Z,5.63
2023-03-05T12:25:50.422Z,5.51
2023-03-05T12:28:39.364Z,5.44
2023-03-05T12:31:26.506Z,5.47
2023-03-05T12:33:54.269Z,5.52
2023-03-05T12:36:36.738Z,5.42
2023-03-05T12:39:52.708Z,5.40
2023-03-05T12:42:56.414Z,5.53
2023-03-05T12:45:34.086Z,5.45
2023-03-05T12:48:41.764Z,5.48
2023-03-05T12:51:27.865Z,5.59
2023-03-05T12:53:57.437Z,5.61
2023-03-05T12:56:30.948Z,5.65
2023-03-05T12:59:01.298Z,5.47
2023-03-05T13:01:36.541Z,5.58
2023-03-05T13:04:11.022Z,5.62
2023-03-05T13:06:40.237Z,5.67
2023-03-05T13:09:18.391Z,5.79
2023-03-05T13:11:49.114Z,5.85
2023-03-05T13:14:30.967Z,5.85
2023-03-05T13:16:59.108Z,6.05
2023-03-05T13:19:27.156Z,6.20
2023-03-05T13:21:59.206Z,6.19
2023-03-05T13:24:29.185Z,5.82
2023-03-05T13:26:57.452Z,5.82
2023-03-05T13:29:28.174Z,5.68
2023-03-05T13:31:58.479Z,5.73
2023-03-05T13:34:40.843Z,5.68
2023-03-05T13:37:18.933Z,5.65
2023-03-05T13:39:53.162Z,5.47
2023-03-05T13:42:23.774Z,5.51
2023-03-05T13:44:55.718Z,5.45
2023-03-05T13:47:25.708Z,5.33
2023-03-05T13:49:59.830Z,5.42
2023-03-05T13:52:29.753Z,5.30
2023-03-05T13:54:59.671Z,5.34
2023-03-05T13:57:36.497Z,5.39
2023-03-05T14:00:06.395Z,5.38
2023-03-05T14:02:34.677Z,5.43
2023-03-05T14:05:02.539Z,5.41
2023-03-05T14:07:35.212Z,5.22
2023-03-05T14:10:05.563Z,5.16
2023-03-05T14:12:37.042Z,5.12
2023-03-05T14:15:20.754Z,5.16
2023-03-05T14:17:49.030Z,5.08
2023-03-05T14:20:24.709Z,5.01
2023-03-05T14:22:54.698Z,5.04
2023-03-05T14:25:44.400Z,5.04
2023-03-05T14:28:26.948Z,5.11
2023-03-05T14:30:57.431Z,5.15
2023-03-05T14:33:27.497Z,5.17
2023-03-05T14:35:57.676Z,5.08
2023-03-05T14:38:29.807Z,5.11
2023-03-05T14:40:59.111Z,5.18
2023-03-05T14:43:26.813Z,5.15
2023-03-05T14:45:54.556Z,5.03
2023-03-05T14:48:22.304Z,5.04
2023-03-05T14:50:56.289Z,4.98
2023-03-05T14:53:27.937Z,4.83
2023-03-05T14:55:58.063Z,4.74
2023-03-05T14:58:28.052Z,4.72
2023-03-05T15:00:56.776Z,4.76
2023-03-05T15:03:26.194Z,4.75
2023-03-05T15:05:56.248Z,4.76
2023-03-05T15:08:28.729Z,4.78
2023-03-05T15:10:57.920Z,4.76
2023-03-05T15:13:25.915Z,4.78
2023-03-05T15:15:54.813Z,4.85
2023-03-05T15:18:23.745Z,4.82
2023-03-05T15:20:53.006Z,4.77
2023-03-05T15:23:20.941Z,4.77
2023-03-05T15:25:48.713Z,4.72
2023-03-05T15:28:18.077Z,4.70
2023-03-05T15:30:47.966Z,4.74
2023-03-05T15:33:18.062Z,4.72
2023-03-05T15:35:45.853Z,4.74
2023-03-05T15:38:13.646Z,4.74
2023-03-05T15:40:41.393Z,4.70
2023-03-05T15:43:09.110Z,4.58
2023-03-05T15:45:38.449Z,4.56
2023-03-05T15:48:06.711Z,4.49
2023-03-05T15:50:34.448Z,4.43
2023-03-05T15:53:02.200Z,4.38
2023-03-05T15:55:29.917Z,4.35
2023-03-05T15:57:57.619Z,4.37
2023-03-05T16:00:30.804Z,4.35
2023-03-05T16:02:59.878Z,4.35
2023-03-05T16:05:27.650Z,4.28
2023-03-05T16:07:56.561Z,4.28
2023-03-05T16:10:26.552Z,4.27
2023-03-05T16:12:57.344Z,4.24
2023-03-05T16:15:28.018Z,4.21
2023-03-05T16:17:58.187Z,4.17
2023-03-05T16:20:27.543Z,4.13
2023-03-05T16:22:55.321Z,4.11
2023-03-05T16:25:23.204Z,4.08
2023-03-05T16:27:50.917Z,4.05
2023-03-05T16:30:19.280Z,4.02
2023-03-05T16:32:47.034Z,3.99
2023-03-05T16:35:14.806Z,3.99
2023-03-05T16:37:44.091Z,3.96
2023-03-05T16:40:15.027Z,3.90
2023-03-05T16:42:43.715Z,3.87
2023-03-05T16:45:12.733Z,3.84
2023-03-05T16:47:42.273Z,3.78
2023-03-05T16:50:12.972Z,3.76
2023-03-05T16:52:40.746Z,3.75
2023-03-05T16:55:10.763Z,3.72
2023-03-05T16:57:39.776Z,3.67
2023-03-05T17:00:09.103Z,3.59
2023-03-05T17:02:38.295Z,3.53
2023-03-05T17:05:07.571Z,3.48
2023-03-05T17:07:35.751Z,3.44
2023-03-05T17:10:04.760Z,3.37
2023-03-05T17:12:34.314Z,3.31
2023-03-05T17:15:04.989Z,3.26
2023-03-05T17:17:32.963Z,3.23
2023-03-05T17:20:05.003Z,3.21
2023-03-05T17:22:35.965Z,3.18
2023-03-05T17:25:04.121Z,3.18
2023-03-05T17:27:32.273Z,3.16
2023-03-05T17:30:02.238Z,3.16
2023-03-05T17:32:30.351Z,3.15
2023-03-05T17:34:58.520Z,3.15
2023-03-05T17:37:32.180Z,3.07
2023-03-05T17:40:00.311Z,3.03
2023-03-05T17:42:28.097Z,2.99
2023-03-05T17:44:59.224Z,2.96
2023-03-05T17:47:32.549Z,2.86
2023-03-05T17:50:01.538Z,2.75
2023-03-05T17:52:31.080Z,2.77
2023-03-05T17:54:59.559Z,2.76
2023-03-05T17:57:27.526Z,2.76
2023-03-05T17:59:55.314Z,2.74
2023-03-05T18:02:23.124Z,2.78
2023-03-05T18:04:52.462Z,2.87
2023-03-05T18:07:29.275Z,2.80
2023-03-05T18:09:57.367Z,2.69
2023-03-05T18:12:28.096Z,2.66
2023-03-05T18:14:58.538Z,2.66
2023-03-05T18:20:23.845Z,2.63
2023-03-05T18:22:57.723Z,2.62
2023-03-05T18:25:31.144Z,2.61
2023-03-05T18:28:00.726Z,2.54
2023-03-05T18:30:35.582Z,2.51
2023-03-05T18:33:10.442Z,2.51
2023-03-05T18:35:44.534Z,2.54
2023-03-05T18:38:13.053Z,2.55
2023-03-05T18:40:41.348Z,2.57
2023-03-05T18:43:11.242Z,2.55
2023-03-05T18:45:39.657Z,2.55
2023-03-05T18:48:11.805Z,2.55
2023-03-05T18:50:41.453Z,2.50
2023-03-05T18:53:13.538Z,2.47
2023-03-05T18:55:45.687Z,2.47
2023-03-05T18:58:15.518Z,2.44
2023-03-05T19:00:50.364Z,2.37
2023-03-05T19:03:21.180Z,2.40
2023-03-05T19:05:52.144Z,2.40
2023-03-05T19:08:29.149Z,2.38
2023-03-05T19:10:56.896Z,2.37
2023-03-05T19:13:39.584Z,2.34
2023-03-05T19:16:09.613Z,2.27
2023-03-05T19:19:15.257Z,2.27
2023-03-05T19:21:45.677Z,2.26
2023-03-05T19:24:17.097Z,2.18
2023-03-05T19:26:45.128Z,2.24
2023-03-05T19:29:13.592Z,2.32
2023-03-05T19:31:42.190Z,2.22
2023-03-05T19:34:10.017Z,2.20
2023-03-05T19:36:38.061Z,2.18
2023-03-05T19:39:08.630Z,2.15
2023-03-05T19:41:37.155Z,2.15
2023-03-05T19:44:05.795Z,2.16
2023-03-05T19:46:34.021Z,2.18
2023-03-05T19:49:01.827Z,2.17
2023-03-05T19:51:29.525Z,2.21
2023-03-05T19:53:57.241Z,2.22
2023-03-05T19:56:27.296Z,2.18
2023-03-05T19:58:55.529Z,2.19
2023-03-05T20:01:25.855Z,2.14
2023-03-05T20:03:56.810Z,2.11
2023-03-05T20:06:26.434Z,2.11
2023-03-05T20:08:54.422Z,2.11
2023-03-05T20:11:23.049Z,2.10
2023-03-05T20:13:53.617Z,2.10
2023-03-05T20:16:23.418Z,2.10
2023-03-05T20:19:03.060Z,2.07
2023-03-05T20:21:32.829Z,2.10
2023-03-05T20:24:03.697Z,2.12
2023-03-05T20:26:47.785Z,2.13
2023-03-05T20:29:18.629Z,2.14
2023-03-05T20:31:47.265Z,2.12
2023-03-05T20:34:16.780Z,2.09
2023-03-05T20:36:45.647Z,2.09
2023-03-05T20:39:13.616Z,2.11
2023-03-05T20:41:41.844Z,2.06
2023-03-05T20:44:11.285Z,1.97
2023-03-05T20:47:23.704Z,1.94
2023-03-05T20:49:58.925Z,1.93
2023-03-05T20:52:26.657Z,1.95
2023-03-05T20:54:54.414Z,1.97
2023-03-05T20:57:22.521Z,1.98
2023-03-05T20:59:50.205Z,1.91
2023-03-05T21:02:19.330Z,1.98
2023-03-05T21:04:47.251Z,2.00
2023-03-05T21:07:15.020Z,1.98
2023-03-05T21:09:42.823Z,1.99
2023-03-05T21:12:11.961Z,1.99
2023-03-05T21:14:40.730Z,1.98
2023-03-05T21:17:12.643Z,1.99
2023-03-05T21:19:41.708Z,2.00
2023-03-05T21:22:09.409Z,1.98
2023-03-05T21:25:20.811Z,1.98
2023-03-05T21:27:50.628Z,1.94
2023-03-05T21:30:20.096Z,1.97
2023-03-05T21:32:48.239Z,1.94
2023-03-05T21:35:22.418Z,1.89
2023-03-05T21:37:52.444Z,1.86
2023-03-05T21:40:21.222Z,1.87
2023-03-05T21:42:49.480Z,1.85
2023-03-05T21:45:18.756Z,1.81
2023-03-05T21:47:46.466Z,1.78
2023-03-05T21:50:17.912Z,1.83
2023-03-05T21:52:47.350Z,1.82
2023-03-05T21:55:17.153Z,1.83
2023-03-05T21:57:45.290Z,1.84
2023-03-05T22:00:14.507Z,1.85
2023-03-05T22:02:42.853Z,1.87
2023-03-05T22:05:15.472Z,1.87
2023-03-05T22:07:44.031Z,1.87
2023-03-05T22:10:15.884Z,1.88
2023-03-05T22:13:12.353Z,1.86
2023-03-05T22:15:45.566Z,1.90
2023-03-05T22:18:14.262Z,1.84
2023-03-05T22:20:44.758Z,1.73
2023-03-05T22:23:15.408Z,1.68
2023-03-05T22:25:45.177Z,1.74
2023-03-05T22:28:14.093Z,1.83
2023-03-05T22:30:45.478Z,1.84
2023-03-05T22:33:13.681Z,1.86
2023-03-05T22:35:42.561Z,1.85
2023-03-05T22:38:11.015Z,1.81
2023-03-05T22:40:42.834Z,1.81
2023-03-05T22:43:12.421Z,1.81
2023-03-05T22:45:40.516Z,1.83
2023-03-05T22:48:09.728Z,1.83
2023-03-05T22:50:37.517Z,1.80
2023-03-05T22:53:05.192Z,1.81
2023-03-05T22:55:34.045Z,1.75
2023-03-05T22:58:02.824Z,1.75
2023-03-05T23:00:31.969Z,1.77
2023-03-05T23:02:59.761Z,1.76
2023-03-05T23:05:27.461Z,1.71
2023-03-05T23:07:55.228Z,1.69
2023-03-05T23:10:27.244Z,1.65
2023-03-05T23:12:57.837Z,1.64
2023-03-05T23:15:27.853Z,1.63
2023-03-05T23:17:57.431Z,1.61
2023-03-05T23:20:27.650Z,1.62
2023-03-05T23:22:56.061Z,1.60
2023-03-05T23:25:25.805Z,1.58
2023-03-05T23:27:53.982Z,1.60
2023-03-05T23:30:23.030Z,1.59
2023-03-05T23:32:53.062Z,1.59
2023-03-05T23:35:26.207Z,1.62
2023-03-05T23:37:55.231Z,1.57
2023-03-05T23:40:24.898Z,1.57
2023-03-05T23:42:53.362Z,1.59
2023-03-05T23:45:22.188Z,1.60
2023-03-05T23:47:51.130Z,1.58
2023-03-05T23:50:21.803Z,1.60
2023-03-05T23:52:54.238Z,1.62
2023-03-05T23:55:24.289Z,1.61
2023-03-05T23:57:52.220Z,1.66
